sensor_id;sensor_type;location;lat;lon;timestamp;temperature;humidity
33994;DHT22;20673;48.980;8.138;2022-10-19T00:02:14;15.10;99.90
33994;DHT22;20673;48.980;8.138;2022-10-19T00:04:42;15.10;99.90
33994;DHT22;20673;48.980;8.138;2022-10-19T00:07:08;15.10;99.90
33994;DHT22;20673;48.980;8.138;2022-10-19T00:09:35;15.10;99.90
33994;DHT22;20673;48.980;8.138;2022-10-19T00:12:01;15.10;99.90
33994;DHT22;20673;48.980;8.138;2022-10-19T00:14:27;15.20;99.90
33994;DHT22;20673;48.980;8.138;2022-10-19T00:16:53;15.10;99.90
33994;DHT22;20673;48.980;8.138;2022-10-19T00:19:23;15.20;99.90
33994;DHT22;20673;48.980;8.138;2022-10-19T00:21:51;15.10;99.90
33994;DHT22;20673;48.980;8.138;2022-10-19T00:24:17;15.10;99.90
33994;DHT22;20673;48.980;8.138;2022-10-19T00:26:44;15.20;99.90
33994;DHT22;20673;48.980;8.138;2022-10-19T00:29:12;15.10;99.90
33994;DHT22;20673;48.980;8.138;2022-10-19T00:31:39;15.00;99.90
33994;DHT22;20673;48.980;8.138;2022-10-19T00:34:06;15.00;99.90
33994;DHT22;20673;48.980;8.138;2022-10-19T00:36:34;15.00;99.90
33994;DHT22;20673;48.980;8.138;2022-10-19T00:39:05;15.00;99.90
33994;DHT22;20673;48.980;8.138;2022-10-19T00:41:34;15.00;99.90
33994;DHT22;20673;48.980;8.138;2022-10-19T00:44:56;15.10;99.90
33994;DHT22;20673;48.980;8.138;2022-10-19T00:46:42;15.10;99.90
33994;DHT22;20673;48.980;8.138;2022-10-19T00:49:19;15.10;99.90
33994;DHT22;20673;48.980;8.138;2022-10-19T00:51:53;15.10;99.90
33994;DHT22;20673;48.980;8.138;2022-10-19T00:54:22;15.10;99.90
33994;DHT22;20673;48.980;8.138;2022-10-19T00:56:52;15.20;99.90
33994;DHT22;20673;48.980;8.138;2022-10-19T00:59:22;15.20;99.90
33994;DHT22;20673;48.980;8.138;2022-10-19T01:01:51;15.20;99.90
33994;DHT22;20673;48.980;8.138;2022-10-19T01:04:20;15.20;99.90
33994;DHT22;20673;48.980;8.138;2022-10-19T01:06:48;15.20;99.90
33994;DHT22;20673;48.980;8.138;2022-10-19T01:09:14;15.30;99.90
33994;DHT22;20673;48.980;8.138;2022-10-19T01:15:02;15.30;99.90
33994;DHT22;20673;48.980;8.138;2022-10-19T01:23:30;15.40;99.90
33994;DHT22;20673;48.980;8.138;2022-10-19T01:31:59;15.30;99.90
33994;DHT22;20673;48.980;8.138;2022-10-19T01:34:46;15.30;99.90
33994;DHT22;20673;48.980;8.138;2022-10-19T01:37:40;15.20;99.90
33994;DHT22;20673;48.980;8.138;2022-10-19T01:40:29;15.20;99.90
33994;DHT22;20673;48.980;8.138;2022-10-19T01:43:00;15.20;99.90
33994;DHT22;20673;48.980;8.138;2022-10-19T01:45:38;15.20;99.90
33994;DHT22;20673;48.980;8.138;2022-10-19T01:48:18;15.20;99.90
33994;DHT22;20673;48.980;8.138;2022-10-19T01:50:59;15.20;99.90
33994;DHT22;20673;48.980;8.138;2022-10-19T01:53:33;15.20;99.90
33994;DHT22;20673;48.980;8.138;2022-10-19T01:56:02;15.20;99.90
33994;DHT22;20673;48.980;8.138;2022-10-19T01:58:32;15.10;99.90
33994;DHT22;20673;48.980;8.138;2022-10-19T02:01:04;15.10;99.90
33994;DHT22;20673;48.980;8.138;2022-10-19T02:03:34;15.10;99.90
33994;DHT22;20673;48.980;8.138;2022-10-19T02:06:04;15.00;99.90
33994;DHT22;20673;48.980;8.138;2022-10-19T02:08:43;15.10;99.90
33994;DHT22;20673;48.980;8.138;2022-10-19T02:11:12;15.00;99.90
33994;DHT22;20673;48.980;8.138;2022-10-19T02:13:39;15.00;99.90
33994;DHT22;20673;48.980;8.138;2022-10-19T02:16:13;15.00;99.90
33994;DHT22;20673;48.980;8.138;2022-10-19T02:18:48;15.00;99.90
33994;DHT22;20673;48.980;8.138;2022-10-19T02:21:16;14.90;99.90
33994;DHT22;20673;48.980;8.138;2022-10-19T02:23:43;15.00;99.90
33994;DHT22;20673;48.980;8.138;2022-10-19T02:26:10;15.00;99.90
33994;DHT22;20673;48.980;8.138;2022-10-19T02:28:37;14.90;99.90
33994;DHT22;20673;48.980;8.138;2022-10-19T02:31:04;14.90;99.90
33994;DHT22;20673;48.980;8.138;2022-10-19T02:33:30;14.90;99.90
33994;DHT22;20673;48.980;8.138;2022-10-19T02:35:57;14.90;99.90
33994;DHT22;20673;48.980;8.138;2022-10-19T02:38:25;14.90;99.90
33994;DHT22;20673;48.980;8.138;2022-10-19T02:43:32;14.90;99.90
33994;DHT22;20673;48.980;8.138;2022-10-19T02:46:10;14.90;99.90
33994;DHT22;20673;48.980;8.138;2022-10-19T02:48:46;14.90;99.90
33994;DHT22;20673;48.980;8.138;2022-10-19T02:51:35;14.90;99.90
33994;DHT22;20673;48.980;8.138;2022-10-19T02:54:04;14.90;99.90
33994;DHT22;20673;48.980;8.138;2022-10-19T02:56:33;14.90;99.90
33994;DHT22;20673;48.980;8.138;2022-10-19T02:59:01;14.90;99.90
33994;DHT22;20673;48.980;8.138;2022-10-19T03:01:27;14.90;99.90
33994;DHT22;20673;48.980;8.138;2022-10-19T03:03:54;14.90;99.90
33994;DHT22;20673;48.980;8.138;2022-10-19T03:06:20;14.90;99.90
33994;DHT22;20673;48.980;8.138;2022-10-19T03:08:46;14.90;99.90
33994;DHT22;20673;48.980;8.138;2022-10-19T03:11:12;14.90;99.90
33994;DHT22;20673;48.980;8.138;2022-10-19T03:13:40;14.90;99.90
33994;DHT22;20673;48.980;8.138;2022-10-19T03:16:11;14.90;99.90
33994;DHT22;20673;48.980;8.138;2022-10-19T03:18:39;14.90;99.90
33994;DHT22;20673;48.980;8.138;2022-10-19T03:21:08;14.90;99.90
33994;DHT22;20673;48.980;8.138;2022-10-19T03:23:36;14.90;99.90
33994;DHT22;20673;48.980;8.138;2022-10-19T03:26:04;14.90;99.90
33994;DHT22;20673;48.980;8.138;2022-10-19T03:28:32;14.90;99.90
33994;DHT22;20673;48.980;8.138;2022-10-19T03:30:58;14.90;99.90
33994;DHT22;20673;48.980;8.138;2022-10-19T03:33:25;14.90;99.90
33994;DHT22;20673;48.980;8.138;2022-10-19T03:38:44;14.90;99.90
33994;DHT22;20673;48.980;8.138;2022-10-19T03:41:10;15.00;99.90
33994;DHT22;20673;48.980;8.138;2022-10-19T03:43:36;14.90;99.90
33994;DHT22;20673;48.980;8.138;2022-10-19T03:46:03;14.90;99.90
33994;DHT22;20673;48.980;8.138;2022-10-19T03:48:29;15.00;99.90
33994;DHT22;20673;48.980;8.138;2022-10-19T03:51:04;15.00;99.90
33994;DHT22;20673;48.980;8.138;2022-10-19T03:53:33;15.00;99.90
33994;DHT22;20673;48.980;8.138;2022-10-19T03:56:13;15.00;99.90
33994;DHT22;20673;48.980;8.138;2022-10-19T03:58:39;15.00;99.90
33994;DHT22;20673;48.980;8.138;2022-10-19T04:01:09;15.00;99.90
33994;DHT22;20673;48.980;8.138;2022-10-19T04:03:38;15.00;99.90
33994;DHT22;20673;48.980;8.138;2022-10-19T04:06:09;15.00;99.90
33994;DHT22;20673;48.980;8.138;2022-10-19T04:08:38;15.00;99.90
33994;DHT22;20673;48.980;8.138;2022-10-19T04:11:07;15.00;99.90
33994;DHT22;20673;48.980;8.138;2022-10-19T04:13:35;15.00;99.90
33994;DHT22;20673;48.980;8.138;2022-10-19T04:16:02;15.00;99.90
33994;DHT22;20673;48.980;8.138;2022-10-19T04:18:29;15.00;99.90
33994;DHT22;20673;48.980;8.138;2022-10-19T04:21:00;14.90;99.90
33994;DHT22;20673;48.980;8.138;2022-10-19T04:23:28;14.90;99.90
33994;DHT22;20673;48.980;8.138;2022-10-19T04:26:05;15.00;99.90
33994;DHT22;20673;48.980;8.138;2022-10-19T04:28:33;15.00;99.90
33994;DHT22;20673;48.980;8.138;2022-10-19T04:31:03;14.90;99.90
33994;DHT22;20673;48.980;8.138;2022-10-19T04:33:32;15.00;99.90
33994;DHT22;20673;48.980;8.138;2022-10-19T04:36:04;15.00;99.90
33994;DHT22;20673;48.980;8.138;2022-10-19T04:38:30;15.00;99.90
33994;DHT22;20673;48.980;8.138;2022-10-19T04:41:05;14.90;99.90
33994;DHT22;20673;48.980;8.138;2022-10-19T04:43:33;15.00;99.90
33994;DHT22;20673;48.980;8.138;2022-10-19T04:46:07;15.00;99.90
33994;DHT22;20673;48.980;8.138;2022-10-19T04:48:36;15.00;99.90
33994;DHT22;20673;48.980;8.138;2022-10-19T04:51:04;14.90;99.90
33994;DHT22;20673;48.980;8.138;2022-10-19T04:53:32;14.90;99.90
33994;DHT22;20673;48.980;8.138;2022-10-19T04:56:02;14.90;99.90
33994;DHT22;20673;48.980;8.138;2022-10-19T04:58:31;14.90;99.90
33994;DHT22;20673;48.980;8.138;2022-10-19T05:00:57;14.90;99.90
33994;DHT22;20673;48.980;8.138;2022-10-19T05:03:24;14.90;99.90
33994;DHT22;20673;48.980;8.138;2022-10-19T05:05:50;14.90;99.90
33994;DHT22;20673;48.980;8.138;2022-10-19T05:08:16;14.90;99.90
33994;DHT22;20673;48.980;8.138;2022-10-19T05:10:42;14.90;99.90
33994;DHT22;20673;48.980;8.138;2022-10-19T05:13:08;14.90;99.90
33994;DHT22;20673;48.980;8.138;2022-10-19T05:15:34;14.80;99.90
33994;DHT22;20673;48.980;8.138;2022-10-19T05:18:01;14.80;99.90
33994;DHT22;20673;48.980;8.138;2022-10-19T05:20:27;14.80;99.90
33994;DHT22;20673;48.980;8.138;2022-10-19T05:22:53;14.80;99.90
33994;DHT22;20673;48.980;8.138;2022-10-19T05:25:19;14.90;99.90
33994;DHT22;20673;48.980;8.138;2022-10-19T05:27:52;14.80;99.90
33994;DHT22;20673;48.980;8.138;2022-10-19T05:30:18;14.80;99.90
33994;DHT22;20673;48.980;8.138;2022-10-19T05:32:47;14.80;99.90
33994;DHT22;20673;48.980;8.138;2022-10-19T05:35:13;14.80;99.90
33994;DHT22;20673;48.980;8.138;2022-10-19T05:37:40;14.70;99.90
33994;DHT22;20673;48.980;8.138;2022-10-19T05:40:07;14.70;99.90
33994;DHT22;20673;48.980;8.138;2022-10-19T05:42:34;14.80;99.90
33994;DHT22;20673;48.980;8.138;2022-10-19T05:45:00;14.70;99.90
33994;DHT22;20673;48.980;8.138;2022-10-19T05:47:27;14.70;99.90
33994;DHT22;20673;48.980;8.138;2022-10-19T05:49:53;14.70;99.90
33994;DHT22;20673;48.980;8.138;2022-10-19T05:52:19;14.70;99.90
33994;DHT22;20673;48.980;8.138;2022-10-19T05:54:45;14.60;99.90
33994;DHT22;20673;48.980;8.138;2022-10-19T05:57:12;14.60;99.90
33994;DHT22;20673;48.980;8.138;2022-10-19T05:59:38;14.60;99.90
33994;DHT22;20673;48.980;8.138;2022-10-19T06:02:04;14.60;99.90
33994;DHT22;20673;48.980;8.138;2022-10-19T06:04:31;14.50;99.90
33994;DHT22;20673;48.980;8.138;2022-10-19T06:06:59;14.50;99.90
33994;DHT22;20673;48.980;8.138;2022-10-19T06:09:26;14.50;99.90
33994;DHT22;20673;48.980;8.138;2022-10-19T06:11:52;14.50;99.90
33994;DHT22;20673;48.980;8.138;2022-10-19T06:14:18;14.50;99.90
33994;DHT22;20673;48.980;8.138;2022-10-19T06:16:44;14.50;99.90
33994;DHT22;20673;48.980;8.138;2022-10-19T06:19:10;14.50;99.90
33994;DHT22;20673;48.980;8.138;2022-10-19T06:21:36;14.50;99.90
33994;DHT22;20673;48.980;8.138;2022-10-19T06:24:04;14.40;99.90
33994;DHT22;20673;48.980;8.138;2022-10-19T06:26:32;14.40;99.90
33994;DHT22;20673;48.980;8.138;2022-10-19T06:29:00;14.40;99.90
33994;DHT22;20673;48.980;8.138;2022-10-19T06:31:28;14.40;99.90
33994;DHT22;20673;48.980;8.138;2022-10-19T06:33:59;14.40;99.90
33994;DHT22;20673;48.980;8.138;2022-10-19T06:36:28;14.50;99.90
33994;DHT22;20673;48.980;8.138;2022-10-19T06:38:55;14.40;99.90
33994;DHT22;20673;48.980;8.138;2022-10-19T06:41:24;14.40;99.90
33994;DHT22;20673;48.980;8.138;2022-10-19T06:43:52;14.40;99.90
33994;DHT22;20673;48.980;8.138;2022-10-19T06:46:22;14.40;99.90
33994;DHT22;20673;48.980;8.138;2022-10-19T06:48:56;14.50;99.90
33994;DHT22;20673;48.980;8.138;2022-10-19T06:51:22;14.50;99.90
33994;DHT22;20673;48.980;8.138;2022-10-19T06:53:50;14.40;99.90
33994;DHT22;20673;48.980;8.138;2022-10-19T06:56:17;14.50;99.90
33994;DHT22;20673;48.980;8.138;2022-10-19T06:58:44;14.50;99.90
33994;DHT22;20673;48.980;8.138;2022-10-19T07:01:11;14.50;99.90
33994;DHT22;20673;48.980;8.138;2022-10-19T07:03:40;14.50;99.90
33994;DHT22;20673;48.980;8.138;2022-10-19T07:06:09;14.50;99.90
33994;DHT22;20673;48.980;8.138;2022-10-19T07:08:38;14.50;99.90
33994;DHT22;20673;48.980;8.138;2022-10-19T07:11:08;14.60;99.90
33994;DHT22;20673;48.980;8.138;2022-10-19T07:13:36;14.60;99.90
33994;DHT22;20673;48.980;8.138;2022-10-19T07:16:06;14.70;99.90
33994;DHT22;20673;48.980;8.138;2022-10-19T07:18:41;14.70;99.90
33994;DHT22;20673;48.980;8.138;2022-10-19T07:21:09;14.80;99.90
33994;DHT22;20673;48.980;8.138;2022-10-19T07:23:39;14.80;99.90
33994;DHT22;20673;48.980;8.138;2022-10-19T07:26:15;14.80;99.90
33994;DHT22;20673;48.980;8.138;2022-10-19T07:28:46;14.90;99.90
33994;DHT22;20673;48.980;8.138;2022-10-19T07:31:15;15.00;99.90
33994;DHT22;20673;48.980;8.138;2022-10-19T07:33:45;15.10;99.90
33994;DHT22;20673;48.980;8.138;2022-10-19T07:36:12;15.10;99.90
33994;DHT22;20673;48.980;8.138;2022-10-19T07:38:39;15.20;99.90
33994;DHT22;20673;48.980;8.138;2022-10-19T07:41:09;15.20;99.90
33994;DHT22;20673;48.980;8.138;2022-10-19T07:43:38;15.20;99.90
33994;DHT22;20673;48.980;8.138;2022-10-19T07:46:07;15.20;99.90
33994;DHT22;20673;48.980;8.138;2022-10-19T07:48:35;15.20;99.90
33994;DHT22;20673;48.980;8.138;2022-10-19T07:51:04;15.30;99.90
33994;DHT22;20673;48.980;8.138;2022-10-19T07:53:31;15.40;99.90
33994;DHT22;20673;48.980;8.138;2022-10-19T07:56:08;15.30;99.90
33994;DHT22;20673;48.980;8.138;2022-10-19T07:58:33;15.20;99.90
33994;DHT22;20673;48.980;8.138;2022-10-19T08:01:06;15.20;99.90
33994;DHT22;20673;48.980;8.138;2022-10-19T08:03:34;15.20;99.90
33994;DHT22;20673;48.980;8.138;2022-10-19T08:06:03;15.30;99.90
33994;DHT22;20673;48.980;8.138;2022-10-19T08:08:31;15.30;99.90
33994;DHT22;20673;48.980;8.138;2022-10-19T08:11:06;15.40;99.90
33994;DHT22;20673;48.980;8.138;2022-10-19T08:13:34;15.50;99.90
33994;DHT22;20673;48.980;8.138;2022-10-19T08:16:00;15.40;99.90
33994;DHT22;20673;48.980;8.138;2022-10-19T08:18:26;15.50;99.90
33994;DHT22;20673;48.980;8.138;2022-10-19T08:20:53;15.60;99.90
33994;DHT22;20673;48.980;8.138;2022-10-19T08:23:19;15.60;99.90
33994;DHT22;20673;48.980;8.138;2022-10-19T08:25:45;15.60;99.90
33994;DHT22;20673;48.980;8.138;2022-10-19T08:28:11;15.70;99.90
33994;DHT22;20673;48.980;8.138;2022-10-19T08:30:38;15.60;99.90
33994;DHT22;20673;48.980;8.138;2022-10-19T08:33:04;15.60;99.90
33994;DHT22;20673;48.980;8.138;2022-10-19T08:35:37;15.60;99.90
33994;DHT22;20673;48.980;8.138;2022-10-19T08:38:01;15.70;99.90
33994;DHT22;20673;48.980;8.138;2022-10-19T08:40:29;15.90;99.90
33994;DHT22;20673;48.980;8.138;2022-10-19T08:45:57;15.90;99.90
33994;DHT22;20673;48.980;8.138;2022-10-19T08:48:32;15.90;99.90
33994;DHT22;20673;48.980;8.138;2022-10-19T08:51:04;15.90;99.90
33994;DHT22;20673;48.980;8.138;2022-10-19T08:56:29;16.10;99.90
33994;DHT22;20673;48.980;8.138;2022-10-19T09:02:15;16.10;99.90
33994;DHT22;20673;48.980;8.138;2022-10-19T09:04:56;16.20;99.90
33994;DHT22;20673;48.980;8.138;2022-10-19T09:07:28;16.20;99.90
33994;DHT22;20673;48.980;8.138;2022-10-19T09:12:52;16.40;99.90
33994;DHT22;20673;48.980;8.138;2022-10-19T09:15:37;16.50;99.90
33994;DHT22;20673;48.980;8.138;2022-10-19T09:18:20;16.60;99.90
33994;DHT22;20673;48.980;8.138;2022-10-19T09:20:43;16.50;99.90
33994;DHT22;20673;48.980;8.138;2022-10-19T09:23:24;16.50;99.90
33994;DHT22;20673;48.980;8.138;2022-10-19T09:25:55;16.60;99.90
33994;DHT22;20673;48.980;8.138;2022-10-19T09:28:49;16.60;99.90
33994;DHT22;20673;48.980;8.138;2022-10-19T09:31:32;16.60;99.90
33994;DHT22;20673;48.980;8.138;2022-10-19T09:34:04;16.50;99.90
33994;DHT22;20673;48.980;8.138;2022-10-19T09:36:37;16.40;99.90
33994;DHT22;20673;48.980;8.138;2022-10-19T09:39:03;16.40;99.90
33994;DHT22;20673;48.980;8.138;2022-10-19T09:41:30;16.40;99.90
33994;DHT22;20673;48.980;8.138;2022-10-19T09:43:58;16.30;99.90
33994;DHT22;20673;48.980;8.138;2022-10-19T09:46:46;16.20;99.90
33994;DHT22;20673;48.980;8.138;2022-10-19T09:49:41;16.20;99.90
33994;DHT22;20673;48.980;8.138;2022-10-19T10:00:45;16.40;99.90
33994;DHT22;20673;48.980;8.138;2022-10-19T10:05:53;16.20;99.90
33994;DHT22;20673;48.980;8.138;2022-10-19T10:08:25;16.20;99.90
33994;DHT22;20673;48.980;8.138;2022-10-19T10:14:13;16.50;99.90
33994;DHT22;20673;48.980;8.138;2022-10-19T10:16:55;16.70;99.90
33994;DHT22;20673;48.980;8.138;2022-10-19T10:19:29;16.70;99.90
33994;DHT22;20673;48.980;8.138;2022-10-19T10:21:56;16.60;99.90
33994;DHT22;20673;48.980;8.138;2022-10-19T10:24:29;16.60;99.90
33994;DHT22;20673;48.980;8.138;2022-10-19T10:26:59;16.80;99.90
33994;DHT22;20673;48.980;8.138;2022-10-19T10:29:34;16.90;99.90
33994;DHT22;20673;48.980;8.138;2022-10-19T10:32:05;17.00;99.90
33994;DHT22;20673;48.980;8.138;2022-10-19T10:34:54;17.00;99.90
33994;DHT22;20673;48.980;8.138;2022-10-19T10:37:18;17.40;99.90
33994;DHT22;20673;48.980;8.138;2022-10-19T10:39:52;18.40;99.90
33994;DHT22;20673;48.980;8.138;2022-10-19T10:42:25;18.90;99.90
33994;DHT22;20673;48.980;8.138;2022-10-19T10:44:52;19.10;99.90
33994;DHT22;20673;48.980;8.138;2022-10-19T10:47:21;19.20;99.90
33994;DHT22;20673;48.980;8.138;2022-10-19T10:49:59;19.00;99.90
33994;DHT22;20673;48.980;8.138;2022-10-19T10:52:30;19.40;99.90
33994;DHT22;20673;48.980;8.138;2022-10-19T10:57:48;19.30;99.90
33994;DHT22;20673;48.980;8.138;2022-10-19T11:00:19;19.40;99.90
33994;DHT22;20673;48.980;8.138;2022-10-19T11:05:43;20.30;99.90
33994;DHT22;20673;48.980;8.138;2022-10-19T11:11:05;20.50;99.90
33994;DHT22;20673;48.980;8.138;2022-10-19T11:17:06;20.70;99.90
33994;DHT22;20673;48.980;8.138;2022-10-19T11:30:54;20.40;99.90
33994;DHT22;20673;48.980;8.138;2022-10-19T11:36:53;20.10;99.90
33994;DHT22;20673;48.980;8.138;2022-10-19T11:45:24;20.50;99.90
33994;DHT22;20673;48.980;8.138;2022-10-19T11:56:43;19.90;99.90
33994;DHT22;20673;48.980;8.138;2022-10-19T12:11:56;20.30;99.90
33994;DHT22;20673;48.980;8.138;2022-10-19T12:14:38;20.00;99.90
33994;DHT22;20673;48.980;8.138;2022-10-19T12:17:08;20.40;99.90
33994;DHT22;20673;48.980;8.138;2022-10-19T12:19:43;20.80;99.90
33994;DHT22;20673;48.980;8.138;2022-10-19T12:22:14;20.70;99.90
33994;DHT22;20673;48.980;8.138;2022-10-19T12:24:43;20.80;99.90
33994;DHT22;20673;48.980;8.138;2022-10-19T12:27:12;20.40;99.90
33994;DHT22;20673;48.980;8.138;2022-10-19T12:29:43;20.20;99.90
33994;DHT22;20673;48.980;8.138;2022-10-19T12:32:14;20.20;99.90
33994;DHT22;20673;48.980;8.138;2022-10-19T12:34:48;20.50;99.90
33994;DHT22;20673;48.980;8.138;2022-10-19T12:43:12;21.30;99.90
33994;DHT22;20673;48.980;8.138;2022-10-19T12:45:59;21.80;99.90
33994;DHT22;20673;48.980;8.138;2022-10-19T12:48:22;22.20;99.90
33994;DHT22;20673;48.980;8.138;2022-10-19T12:56:02;22.00;99.90
33994;DHT22;20673;48.980;8.138;2022-10-19T13:01:12;22.30;99.90
33994;DHT22;20673;48.980;8.138;2022-10-19T13:03:42;22.80;99.90
33994;DHT22;20673;48.980;8.138;2022-10-19T13:06:28;23.00;99.90
33994;DHT22;20673;48.980;8.138;2022-10-19T13:08:59;22.80;99.90
33994;DHT22;20673;48.980;8.138;2022-10-19T13:11:34;22.70;99.90
33994;DHT22;20673;48.980;8.138;2022-10-19T13:14:06;22.40;99.90
33994;DHT22;20673;48.980;8.138;2022-10-19T13:17:00;22.30;99.90
33994;DHT22;20673;48.980;8.138;2022-10-19T13:19:28;22.40;99.90
33994;DHT22;20673;48.980;8.138;2022-10-19T13:24:33;22.40;99.90
33994;DHT22;20673;48.980;8.138;2022-10-19T13:32:40;22.80;99.90
33994;DHT22;20673;48.980;8.138;2022-10-19T13:38:18;22.30;99.90
33994;DHT22;20673;48.980;8.138;2022-10-19T13:43:26;22.50;99.90
33994;DHT22;20673;48.980;8.138;2022-10-19T14:01:10;22.00;99.90
33994;DHT22;20673;48.980;8.138;2022-10-19T14:07:35;21.80;99.90
33994;DHT22;20673;48.980;8.138;2022-10-19T14:12:12;21.10;99.90
33994;DHT22;20673;48.980;8.138;2022-10-19T14:14:42;21.10;99.90
33994;DHT22;20673;48.980;8.138;2022-10-19T14:17:18;21.40;99.90
33994;DHT22;20673;48.980;8.138;2022-10-19T14:19:52;21.70;99.90
33994;DHT22;20673;48.980;8.138;2022-10-19T14:22:32;22.20;99.90
33994;DHT22;20673;48.980;8.138;2022-10-19T14:25:18;21.80;99.90
33994;DHT22;20673;48.980;8.138;2022-10-19T14:27:48;21.50;99.90
33994;DHT22;20673;48.980;8.138;2022-10-19T14:30:20;21.40;99.90
33994;DHT22;20673;48.980;8.138;2022-10-19T14:32:47;21.00;99.90
33994;DHT22;20673;48.980;8.138;2022-10-19T14:35:23;20.80;99.90
33994;DHT22;20673;48.980;8.138;2022-10-19T14:37:54;20.50;99.90
33994;DHT22;20673;48.980;8.138;2022-10-19T14:40:27;20.90;99.90
33994;DHT22;20673;48.980;8.138;2022-10-19T14:42:58;21.30;99.90
33994;DHT22;20673;48.980;8.138;2022-10-19T14:45:28;21.40;99.90
33994;DHT22;20673;48.980;8.138;2022-10-19T14:47:59;21.40;99.90
33994;DHT22;20673;48.980;8.138;2022-10-19T14:53:52;21.20;99.90
33994;DHT22;20673;48.980;8.138;2022-10-19T14:55:43;21.30;99.90
33994;DHT22;20673;48.980;8.138;2022-10-19T14:58:16;21.10;99.90
33994;DHT22;20673;48.980;8.138;2022-10-19T15:00:46;21.20;99.90
33994;DHT22;20673;48.980;8.138;2022-10-19T15:03:24;21.70;99.90
33994;DHT22;20673;48.980;8.138;2022-10-19T15:05:55;21.90;99.90
33994;DHT22;20673;48.980;8.138;2022-10-19T15:08:35;21.90;99.90
33994;DHT22;20673;48.980;8.138;2022-10-19T15:14:13;21.50;99.90
33994;DHT22;20673;48.980;8.138;2022-10-19T15:17:00;21.20;99.90
33994;DHT22;20673;48.980;8.138;2022-10-19T15:19:30;20.80;99.90
33994;DHT22;20673;48.980;8.138;2022-10-19T15:22:19;20.30;99.90
33994;DHT22;20673;48.980;8.138;2022-10-19T15:27:42;19.60;99.90
33994;DHT22;20673;48.980;8.138;2022-10-19T15:35:36;18.80;99.90
33994;DHT22;20673;48.980;8.138;2022-10-19T15:38:06;18.70;99.90
33994;DHT22;20673;48.980;8.138;2022-10-19T15:40:42;18.60;99.90
33994;DHT22;20673;48.980;8.138;2022-10-19T15:48:48;18.10;99.90
33994;DHT22;20673;48.980;8.138;2022-10-19T15:54:00;17.90;99.90
33994;DHT22;20673;48.980;8.138;2022-10-19T15:56:28;17.80;99.90
33994;DHT22;20673;48.980;8.138;2022-10-19T15:58:58;17.70;99.90
33994;DHT22;20673;48.980;8.138;2022-10-19T16:01:28;17.50;99.90
33994;DHT22;20673;48.980;8.138;2022-10-19T16:03:56;17.40;99.90
33994;DHT22;20673;48.980;8.138;2022-10-19T16:06:27;17.20;99.90
33994;DHT22;20673;48.980;8.138;2022-10-19T16:08:55;17.10;99.90
33994;DHT22;20673;48.980;8.138;2022-10-19T16:11:23;17.00;99.90
33994;DHT22;20673;48.980;8.138;2022-10-19T16:13:50;16.90;99.90
33994;DHT22;20673;48.980;8.138;2022-10-19T16:16:23;16.70;99.90
33994;DHT22;20673;48.980;8.138;2022-10-19T16:18:51;16.70;99.90
33994;DHT22;20673;48.980;8.138;2022-10-19T16:21:20;16.60;99.90
33994;DHT22;20673;48.980;8.138;2022-10-19T16:23:48;16.40;99.90
33994;DHT22;20673;48.980;8.138;2022-10-19T16:26:18;16.30;99.90
33994;DHT22;20673;48.980;8.138;2022-10-19T16:28:44;16.20;99.90
33994;DHT22;20673;48.980;8.138;2022-10-19T16:31:13;16.10;99.90
33994;DHT22;20673;48.980;8.138;2022-10-19T16:33:40;16.00;99.90
33994;DHT22;20673;48.980;8.138;2022-10-19T16:36:07;15.90;99.90
33994;DHT22;20673;48.980;8.138;2022-10-19T16:38:34;15.80;99.90
33994;DHT22;20673;48.980;8.138;2022-10-19T16:41:03;15.70;99.90
33994;DHT22;20673;48.980;8.138;2022-10-19T16:43:32;15.70;99.90
33994;DHT22;20673;48.980;8.138;2022-10-19T16:45:59;15.60;99.90
33994;DHT22;20673;48.980;8.138;2022-10-19T16:48:26;15.50;99.90
33994;DHT22;20673;48.980;8.138;2022-10-19T16:51:14;15.40;99.90
33994;DHT22;20673;48.980;8.138;2022-10-19T16:53:36;15.40;99.90
33994;DHT22;20673;48.980;8.138;2022-10-19T16:56:05;15.30;99.90
33994;DHT22;20673;48.980;8.138;2022-10-19T16:58:34;15.20;99.90
33994;DHT22;20673;48.980;8.138;2022-10-19T17:01:14;15.20;99.90
33994;DHT22;20673;48.980;8.138;2022-10-19T17:03:41;15.20;99.90
33994;DHT22;20673;48.980;8.138;2022-10-19T17:06:08;15.10;99.90
33994;DHT22;20673;48.980;8.138;2022-10-19T17:08:35;15.10;99.90
33994;DHT22;20673;48.980;8.138;2022-10-19T17:13:40;15.10;99.90
33994;DHT22;20673;48.980;8.138;2022-10-19T17:16:08;15.00;99.90
33994;DHT22;20673;48.980;8.138;2022-10-19T17:18:35;15.00;99.90
33994;DHT22;20673;48.980;8.138;2022-10-19T17:21:05;14.90;99.90
33994;DHT22;20673;48.980;8.138;2022-10-19T17:23:34;14.90;99.90
33994;DHT22;20673;48.980;8.138;2022-10-19T17:26:00;14.90;99.90
33994;DHT22;20673;48.980;8.138;2022-10-19T17:28:27;14.80;99.90
33994;DHT22;20673;48.980;8.138;2022-10-19T17:30:53;14.80;99.90
33994;DHT22;20673;48.980;8.138;2022-10-19T17:33:23;14.70;99.90
33994;DHT22;20673;48.980;8.138;2022-10-19T17:35:51;14.70;99.90
33994;DHT22;20673;48.980;8.138;2022-10-19T17:38:17;14.70;99.90
33994;DHT22;20673;48.980;8.138;2022-10-19T17:40:43;14.70;99.90
33994;DHT22;20673;48.980;8.138;2022-10-19T17:43:10;14.60;99.90
33994;DHT22;20673;48.980;8.138;2022-10-19T17:45:36;14.50;99.90
33994;DHT22;20673;48.980;8.138;2022-10-19T17:48:02;14.50;99.90
33994;DHT22;20673;48.980;8.138;2022-10-19T17:50:29;14.40;99.90
33994;DHT22;20673;48.980;8.138;2022-10-19T17:52:57;14.40;99.90
33994;DHT22;20673;48.980;8.138;2022-10-19T17:55:23;14.40;99.90
33994;DHT22;20673;48.980;8.138;2022-10-19T17:57:51;14.40;99.90
33994;DHT22;20673;48.980;8.138;2022-10-19T18:00:17;14.40;99.90
33994;DHT22;20673;48.980;8.138;2022-10-19T18:02:44;14.40;99.90
33994;DHT22;20673;48.980;8.138;2022-10-19T18:05:10;14.40;99.90
33994;DHT22;20673;48.980;8.138;2022-10-19T18:07:36;14.40;99.90
33994;DHT22;20673;48.980;8.138;2022-10-19T18:10:03;14.30;99.90
33994;DHT22;20673;48.980;8.138;2022-10-19T18:12:30;14.30;99.90
33994;DHT22;20673;48.980;8.138;2022-10-19T18:14:56;14.30;99.90
33994;DHT22;20673;48.980;8.138;2022-10-19T18:17:22;14.20;99.90
33994;DHT22;20673;48.980;8.138;2022-10-19T18:19:48;14.20;99.90
33994;DHT22;20673;48.980;8.138;2022-10-19T18:22:14;14.10;99.90
33994;DHT22;20673;48.980;8.138;2022-10-19T18:24:40;14.00;99.90
33994;DHT22;20673;48.980;8.138;2022-10-19T18:27:06;14.00;99.90
33994;DHT22;20673;48.980;8.138;2022-10-19T18:29:32;14.00;99.90
33994;DHT22;20673;48.980;8.138;2022-10-19T18:31:59;14.00;99.90
33994;DHT22;20673;48.980;8.138;2022-10-19T18:34:26;13.90;99.90
33994;DHT22;20673;48.980;8.138;2022-10-19T18:36:53;13.90;99.90
33994;DHT22;20673;48.980;8.138;2022-10-19T18:39:20;13.90;99.90
33994;DHT22;20673;48.980;8.138;2022-10-19T18:41:49;13.90;99.90
33994;DHT22;20673;48.980;8.138;2022-10-19T18:44:20;13.90;99.90